Time;durP1;ratioP1;P1;durP2;ratioP2;P2;SDS_P1;SDS_P2;PMS_P1;PMS_P2;Temp;Humidity;BMP_temperature;BMP_pressure;BME280_temperature;BME280_humidity;BME280_pressure;Samples;Min_cycle;Max_cycle;Signal;HPM_P1;HPM_P2
2022/06/18 00:00:40;;;;;;;1.83;1.55;;;;;;;31.35;32.45;101573.13;4974312;28;20026;-68
2022/06/18 00:03:05;;;;;;;1.05;0.95;;;;;;;31.33;32.23;101576.13;4974359;28;20037;-68
2022/06/18 00:05:31;;;;;;;2.67;1.50;;;;;;;31.31;32.07;101578.31;4974132;28;20107;-68
2022/06/18 00:07:57;;;;;;;1.92;1.08;;;;;;;31.30;32.32;101573.88;4974133;28;20089;-68
2022/06/18 00:10:28;;;;;;;3.13;1.50;;;;;;;31.27;32.70;101577.13;4974101;28;20023;-68
2022/06/18 00:15:39;;;;;;;1.40;1.27;;;;;;;31.22;32.61;101582.56;4959701;28;20050;-68
2022/06/18 00:18:11;;;;;;;2.72;1.10;;;;;;;31.20;32.62;101576.44;4974381;28;20033;-68
2022/06/18 00:20:37;;;;;;;3.60;1.30;;;;;;;31.17;32.56;101574.16;4974302;28;20255;-68
2022/06/18 00:23:05;;;;;;;2.20;1.27;;;;;;;31.14;32.91;101580.19;4957023;28;20034;-68
2022/06/18 00:25:38;;;;;;;5.38;1.27;;;;;;;31.09;32.93;101574.56;4956832;28;20030;-68
2022/06/18 00:28:11;;;;;;;1.90;1.38;;;;;;;31.07;32.79;101582.28;4974214;28;20099;-68
2022/06/18 00:30:36;;;;;;;;;;;;;;;31.05;32.76;101582.50;4973394;28;20030;-68
2022/06/18 00:33:01;;;;;;;4.63;2.55;;;;;;;31.03;32.80;101572.78;4973861;28;19910;-68
2022/06/18 00:35:27;;;;;;;2.63;1.02;;;;;;;30.99;32.71;101575.19;4974300;28;20030;-68
2022/06/18 00:37:56;;;;;;;4.18;1.80;;;;;;;30.97;32.72;101582.91;4973914;28;20033;-68
2022/06/18 00:40:28;;;;;;;2.25;1.08;;;;;;;30.93;33.02;101575.34;4957439;28;20031;-68
2022/06/18 00:42:57;;;;;;;4.55;1.10;;;;;;;30.91;33.04;101580.22;4977553;28;20448;-68
2022/06/18 00:45:26;;;;;;;2.72;1.30;;;;;;;30.89;33.21;101579.66;4977374;28;20031;-69
2022/06/18 00:48:02;;;;;;;1.73;1.20;;;;;;;30.86;33.11;101585.66;4977576;28;20031;-69
2022/06/18 00:50:39;;;;;;;2.90;1.30;;;;;;;30.82;33.17;101581.72;4977530;28;20018;-68
2022/06/18 00:53:12;;;;;;;3.88;1.30;;;;;;;30.75;33.58;101578.25;4977284;28;20034;-68
2022/06/18 00:55:46;;;;;;;3.10;1.38;;;;;;;30.69;33.72;101584.75;4977659;28;20034;-68
2022/06/18 00:58:31;;;;;;;3.53;1.25;;;;;;;30.66;33.42;101579.69;4959759;28;20062;-67
2022/06/18 01:00:58;;;;;;;3.40;1.73;;;;;;;30.62;33.64;101579.34;4960012;28;20027;-69
2022/06/18 01:03:30;;;;;;;2.88;2.05;;;;;;;30.60;33.38;101572.38;4959828;28;20026;-68
2022/06/18 01:05:57;;;;;;;2.92;1.33;;;;;;;30.57;33.64;101582.84;4977163;28;20090;-68
2022/06/18 01:08:26;;;;;;;2.70;1.10;;;;;;;30.54;33.96;101572.25;4975891;28;20030;-68
2022/06/18 01:10:55;;;;;;;2.70;1.48;;;;;;;30.51;34.02;101577.44;4959819;28;20037;-69
2022/06/18 01:13:25;;;;;;;3.05;1.40;;;;;;;30.50;34.37;101573.00;4975675;28;20058;-67
2022/06/18 01:15:52;;;;;;;1.88;1.30;;;;;;;30.47;33.74;101571.56;4975728;28;20025;-69
2022/06/18 01:18:18;;;;;;;7.20;1.90;;;;;;;30.44;34.29;101572.03;4976644;28;20023;-69
2022/06/18 01:20:50;;;;;;;4.65;1.05;;;;;;;30.41;33.99;101561.44;4976825;28;20046;-68
2022/06/18 01:23:37;;;;;;;4.20;1.77;;;;;;;30.41;33.68;101558.69;4959649;28;20391;-69
2022/06/18 01:26:02;;;;;;;2.35;1.30;;;;;;;30.38;33.81;101556.41;4976850;28;20499;-68
2022/06/18 01:28:28;;;;;;;1.95;1.20;;;;;;;30.35;34.03;101547.72;4977074;28;20035;-68
2022/06/18 01:30:53;;;;;;;1.63;1.02;;;;;;;30.34;33.93;101544.13;4976613;28;20435;-68
2022/06/18 01:33:19;;;;;;;2.22;1.02;;;;;;;30.36;33.69;101544.72;4976562;28;20027;-68
2022/06/18 01:35:47;;;;;;;1.02;0.90;;;;;;;30.36;33.88;101541.97;4976665;28;20023;-69
2022/06/18 01:38:13;;;;;;;2.08;1.27;;;;;;;30.33;34.01;101536.91;4959396;28;20089;-67
2022/06/18 01:40:44;;;;;;;4.50;1.88;;;;;;;30.32;34.05;101540.75;4976431;28;20508;-69
2022/06/18 01:43:12;;;;;;;2.60;1.33;;;;;;;30.32;33.42;101532.44;4976485;28;20503;-67
2022/06/18 01:45:38;;;;;;;4.00;1.17;;;;;;;30.32;33.59;101528.88;4959109;28;20093;-68
2022/06/18 01:48:16;;;;;;;1.08;0.95;;;;;;;30.32;33.82;101540.75;4959139;28;20034;-68
2022/06/18 01:50:52;;;;;;;2.25;1.00;;;;;;;30.35;33.78;101529.19;4976342;28;20023;-68
2022/06/18 01:53:27;;;;;;;3.10;0.82;;;;;;;30.36;33.63;101525.38;4975200;28;20065;-68
2022/06/18 01:56:09;;;;;;;1.88;0.98;;;;;;;30.37;33.10;101527.09;4975230;28;20038;-68
2022/06/18 01:58:38;;;;;;;4.20;0.90;;;;;;;30.38;33.21;101522.38;4974850;28;20130;-68
2022/06/18 02:01:07;;;;;;;9.68;1.42;;;;;;;30.40;33.57;101521.03;4976315;28;20492;-68
2022/06/18 02:03:32;;;;;;;2.15;1.10;;;;;;;30.42;33.51;101518.06;4976046;28;20029;-68
2022/06/18 02:05:58;;;;;;;6.63;1.63;;;;;;;30.43;33.81;101526.09;4975918;28;20026;-68
2022/06/18 02:08:23;;;;;;;3.55;1.00;;;;;;;30.45;33.12;101523.94;4974795;28;20027;-68
2022/06/18 02:10:58;;;;;;;1.15;1.08;;;;;;;30.46;32.96;101522.84;4975808;28;20035;-68
2022/06/18 02:13:27;;;;;;;1.15;0.90;;;;;;;30.46;33.20;101522.84;4975863;28;20037;-68
2022/06/18 02:15:53;;;;;;;2.58;1.45;;;;;;;30.46;33.29;101522.00;4975844;28;20042;-68
2022/06/18 02:18:19;;;;;;;3.60;1.00;;;;;;;30.45;33.87;101518.41;4974458;28;20117;-68
2022/06/18 02:20:49;;;;;;;3.47;1.15;;;;;;;30.45;33.93;101518.41;4975879;28;20373;-68
2022/06/18 02:23:16;;;;;;;2.55;1.10;;;;;;;30.45;33.34;101512.88;4958651;28;20026;-68
2022/06/18 02:25:41;;;;;;;1.20;1.10;;;;;;;30.44;33.54;101521.41;4975554;28;20034;-68
2022/06/18 02:28:14;;;;;;;1.73;1.20;;;;;;;30.42;33.34;101518.06;4958644;28;20081;-68
2022/06/18 02:30:39;;;;;;;2.85;1.15;;;;;;;30.40;33.98;101517.47;4974440;28;20428;-68
2022/06/18 02:33:17;;;;;;;6.30;1.67;;;;;;;30.37;33.80;101510.50;4975450;28;20023;-68
2022/06/18 02:35:43;;;;;;;2.70;0.95;;;;;;;30.36;33.93;101511.53;4958151;28;20037;-69
2022/06/18 02:38:21;;;;;;;6.32;1.20;;;;;;;30.36;33.10;101508.78;4958567;28;20377;-68
2022/06/18 02:40:47;;;;;;;5.43;1.17;;;;;;;30.35;33.61;101509.84;4958291;28;20106;-68
2022/06/18 02:43:14;;;;;;;4.10;1.45;;;;;;;30.34;33.10;101513.72;4975379;28;20054;-68
2022/06/18 02:45:39;;;;;;;5.80;1.98;;;;;;;30.33;33.73;101519.47;4942072;28;20030;-69
2022/06/18 02:48:05;;;;;;;2.20;1.15;;;;;;;30.30;33.78;101520.78;4975233;28;20507;-68
2022/06/18 02:50:34;;;;;;;4.78;1.42;;;;;;;30.27;33.83;101518.50;4975124;28;20074;-68
2022/06/18 02:53:02;;;;;;;1.40;1.10;;;;;;;30.30;33.94;101515.28;4975079;28;20085;-68
2022/06/18 02:55:43;;;;;;;1.50;1.05;;;;;;;30.27;33.99;101515.75;4974078;28;20507;-68
2022/06/18 02:58:11;;;;;;;1.97;1.83;;;;;;;30.25;33.78;101512.41;4974996;28;20054;-68
2022/06/18 03:00:39;;;;;;;3.40;0.90;;;;;;;30.23;33.79;101516.50;4974993;28;20030;-68
2022/06/18 03:03:06;;;;;;;1.73;1.08;;;;;;;30.23;34.16;101514.56;4973607;28;20109;-68
2022/06/18 03:05:32;;;;;;;1.80;0.90;;;;;;;30.22;33.82;101510.13;4974891;28;20030;-67
2022/06/18 03:07:58;;;;;;;3.70;1.10;;;;;;;30.21;33.96;101522.25;4974909;28;20022;-68
2022/06/18 03:13:07;;;;;;;2.10;1.08;;;;;;;30.19;34.02;101518.88;4974794;28;20034;-68
2022/06/18 03:15:33;;;;;;;2.38;1.23;;;;;;;30.18;33.80;101528.25;4974810;28;20027;-68
2022/06/18 03:17:59;;;;;;;5.38;1.30;;;;;;;30.17;34.16;101523.81;4974619;28;20038;-67
2022/06/18 03:20:30;;;;;;;3.65;1.00;;;;;;;30.17;33.94;101529.34;4974751;28;20074;-68
2022/06/18 03:22:56;;;;;;;5.10;1.05;;;;;;;30.16;33.62;101526.81;4957429;28;20026;-68
2022/06/18 03:25:22;;;;;;;4.20;1.50;;;;;;;30.15;33.43;101527.91;4957339;28;20395;-68
2022/06/18 03:27:47;;;;;;;2.63;1.00;;;;;;;30.14;33.98;101538.13;4974528;28;20131;-68
2022/06/18 03:30:13;;;;;;;1.42;1.30;;;;;;;30.12;33.59;101540.31;4974623;28;20027;-68
2022/06/18 03:32:38;;;;;;;3.35;1.23;;;;;;;30.09;33.69;101528.88;4974839;28;20054;-68
2022/06/18 03:35:04;;;;;;;1.20;1.08;;;;;;;30.08;33.75;101532.72;4974517;28;20027;-68
2022/06/18 03:37:29;;;;;;;3.78;1.20;;;;;;;30.05;34.34;101539.56;4974454;28;20027;-68
2022/06/18 03:39:55;;;;;;;4.55;1.20;;;;;;;30.04;34.24;101537.06;4974446;28;20031;-68
2022/06/18 03:42:20;;;;;;;1.80;1.20;;;;;;;30.02;34.56;101551.09;4973211;28;20058;-68
2022/06/18 03:44:45;;;;;;;2.05;1.35;;;;;;;30.00;34.12;101553.25;4974660;28;20113;-68
2022/06/18 03:47:10;;;;;;;4.95;1.25;;;;;;;30.00;33.79;101539.44;4974380;28;20023;-68
2022/06/18 03:49:36;;;;;;;4.05;0.93;;;;;;;29.98;34.13;101536.91;4974464;28;20026;-68
2022/06/18 03:52:04;;;;;;;3.13;1.65;;;;;;;29.96;34.13;101541.84;4974522;28;20027;-68
2022/06/18 03:54:29;;;;;;;2.30;1.50;;;;;;;29.94;34.85;101540.41;4974358;28;20064;-68
2022/06/18 03:56:55;;;;;;;5.85;1.17;;;;;;;29.93;34.62;101536.78;4974446;28;20030;-68
2022/06/18 03:59:21;;;;;;;2.90;1.20;;;;;;;29.92;34.21;101539.81;4974098;28;20039;-68
2022/06/18 04:01:46;;;;;;;1.45;1.10;;;;;;;29.90;34.86;101540.03;4974434;28;20066;-68
2022/06/18 04:04:13;;;;;;;5.43;1.17;;;;;;;29.88;34.43;101541.34;4974688;28;20130;-68
2022/06/18 04:06:40;;;;;;;3.97;1.38;;;;;;;29.87;34.88;101531.41;4956836;28;20034;-68
2022/06/18 04:09:06;;;;;;;3.72;1.30;;;;;;;29.86;34.42;101529.69;4974453;28;20030;-68
2022/06/18 04:11:31;;;;;;;8.50;1.58;;;;;;;29.84;34.60;101534.63;4974225;28;20034;-68
2022/06/18 04:13:57;;;;;;;1.85;1.30;;;;;;;29.82;35.14;101539.53;4974436;28;20037;-68
2022/06/18 04:16:23;;;;;;;2.97;1.50;;;;;;;29.79;34.40;101539.97;4976903;28;20033;-68
2022/06/18 04:18:49;;;;;;;2.40;1.40;;;;;;;29.78;34.91;101532.78;4978072;28;20078;-68
2022/06/18 04:21:15;;;;;;;2.20;1.20;;;;;;;29.80;34.78;101530.66;4960654;28;20027;-68
2022/06/18 04:23:41;;;;;;;5.40;1.42;;;;;;;29.81;35.63;101529.59;4978047;28;20033;-68
2022/06/18 04:26:06;;;;;;;3.22;1.48;;;;;;;29.80;35.47;101522.38;4978215;28;20409;-68
2022/06/18 04:28:31;;;;;;;1.88;1.77;;;;;;;29.81;35.12;101521.28;4977976;28;20088;-68
2022/06/18 04:30:57;;;;;;;5.57;1.63;;;;;;;29.79;35.03;101523.41;4977651;28;20033;-68
2022/06/18 04:33:22;;;;;;;5.80;1.20;;;;;;;29.78;35.27;101528.13;4976557;28;20030;-68
2022/06/18 04:35:55;;;;;;;1.13;1.02;;;;;;;29.79;35.55;101524.25;4977730;28;20469;-68
2022/06/18 04:38:21;;;;;;;4.35;1.50;;;;;;;29.84;34.67;101521.66;4977599;28;20077;-68
2022/06/18 04:40:46;;;;;;;5.03;1.30;;;;;;;29.89;35.37;101515.41;4977547;28;20023;-69
2022/06/18 04:43:12;;;;;;;3.47;1.00;;;;;;;29.94;35.46;101521.06;4977708;28;20031;-68
2022/06/18 04:45:37;;;;;;;3.88;1.35;;;;;;;29.98;35.71;101516.75;4977479;28;20030;-69
2022/06/18 04:48:04;;;;;;;1.92;0.90;;;;;;;30.06;35.59;101523.81;4977618;28;20049;-68
2022/06/18 04:50:35;;;;;;;3.92;1.60;;;;;;;30.10;35.94;101519.47;4960254;28;20030;-68
2022/06/18 04:53:00;;;;;;;4.72;1.30;;;;;;;30.13;34.92;101514.31;4977497;28;20046;-68
2022/06/18 04:55:26;;;;;;;1.50;1.40;;;;;;;30.21;34.87;101521.44;4977621;28;20031;-68
2022/06/18 04:57:51;;;;;;;1.20;1.10;;;;;;;30.26;34.69;101513.25;4977029;28;20046;-69
2022/06/18 05:00:18;;;;;;;4.18;0.98;;;;;;;30.33;35.17;101512.03;4977194;28;20109;-68
2022/06/18 05:02:43;;;;;;;3.25;1.35;;;;;;;30.41;35.05;101511.69;4977457;28;20512;-68
2022/06/18 05:05:16;;;;;;;2.83;1.40;;;;;;;30.50;35.15;101514.91;4977118;28;20065;-68
2022/06/18 05:07:41;;;;;;;5.80;1.30;;;;;;;30.57;35.01;101513.69;4977284;28;20432;-68
2022/06/18 05:10:07;;;;;;;11.13;1.98;;;;;;;30.68;34.83;101511.16;4977177;28;20058;-69
2022/06/18 05:12:33;;;;;;;0.90;0.90;;;;;;;30.76;34.91;101502.44;4977242;28;20396;-69
2022/06/18 05:14:58;;;;;;;3.05;1.10;;;;;;;30.85;34.94;101512.06;4977009;28;20029;-68
2022/06/18 05:17:30;;;;;;;3.25;0.93;;;;;;;30.91;34.63;101506.34;4976912;28;20463;-68
2022/06/18 05:19:56;;;;;;;2.03;0.93;;;;;;;30.97;34.36;101499.88;4975658;28;20066;-68
2022/06/18 05:22:22;;;;;;;2.65;1.45;;;;;;;31.05;34.64;101496.69;4976773;28;20035;-68
2022/06/18 05:24:47;;;;;;;4.20;1.10;;;;;;;31.13;34.62;101496.28;4976702;28;20050;-68
2022/06/18 05:27:21;;;;;;;5.00;0.80;;;;;;;31.21;34.98;101495.06;4976866;28;20022;-69
2022/06/18 05:29:47;;;;;;;1.92;1.17;;;;;;;31.30;34.22;101496.31;4959381;28;20070;-68
2022/06/18 05:32:12;;;;;;;4.10;1.30;;;;;;;31.41;34.75;101495.41;4976540;28;20102;-68
2022/06/18 05:34:38;;;;;;;5.03;1.08;;;;;;;31.52;34.47;101490.94;4976529;28;20392;-69
2022/06/18 05:37:07;;;;;;;1.48;1.10;;;;;;;31.64;34.23;101495.28;4976556;28;20042;-68
2022/06/18 05:39:33;;;;;;;2.70;1.55;;;;;;;31.75;34.40;101496.28;4959149;28;20053;-67
2022/06/18 05:41:58;;;;;;;2.88;1.30;;;;;;;31.87;34.01;101494.28;4976488;28;20051;-68
2022/06/18 05:44:23;;;;;;;2.83;1.33;;;;;;;31.99;34.37;101492.25;4959115;28;20027;-68
2022/06/18 05:46:49;;;;;;;3.08;1.63;;;;;;;32.09;34.29;101486.88;4976165;28;20114;-68
2022/06/18 05:49:14;;;;;;;2.08;1.10;;;;;;;32.21;34.03;101489.53;4976216;28;20054;-68
2022/06/18 05:51:39;;;;;;;5.68;1.42;;;;;;;32.32;34.42;101488.59;4976300;28;20078;-68
2022/06/18 05:54:05;;;;;;;3.30;1.67;;;;;;;32.44;34.08;101494.00;4976055;28;20089;-68
2022/06/18 05:56:30;;;;;;;2.75;1.23;;;;;;;32.55;34.59;101491.13;4958954;28;20034;-69
2022/06/18 05:58:57;;;;;;;1.77;1.15;;;;;;;32.68;33.83;101487.97;4975934;28;20043;-69
2022/06/18 06:01:22;;;;;;;1.77;1.00;;;;;;;32.78;34.26;101490.00;4976315;28;20022;-68
2022/06/18 06:03:47;;;;;;;4.35;1.10;;;;;;;32.91;34.28;101495.19;4976009;28;20062;-68
2022/06/18 06:06:13;;;;;;;4.22;1.52;;;;;;;33.01;33.33;101489.72;4976243;28;20029;-68
2022/06/18 06:08:38;;;;;;;2.92;1.50;;;;;;;33.15;33.69;101485.47;4958464;28;20031;-68
2022/06/18 06:13:47;;;;;;;2.05;1.25;;;;;;;33.43;33.33;101492.66;4961269;28;20041;-69
2022/06/18 06:16:13;;;;;;;3.67;1.40;;;;;;;33.57;33.39;101493.94;4975764;28;20027;-68
2022/06/18 06:18:38;;;;;;;3.53;1.50;;;;;;;33.69;33.59;101500.16;4975722;28;20045;-68
2022/06/18 06:21:03;;;;;;;2.05;1.48;;;;;;;33.80;33.31;101489.94;4975657;28;20026;-69
2022/06/18 06:23:29;;;;;;;3.15;1.42;;;;;;;33.92;32.69;101493.38;4975545;28;20495;-69
2022/06/18 06:25:56;;;;;;;2.65;1.20;;;;;;;34.04;33.24;101493.16;4975806;28;20023;-68
2022/06/18 06:28:27;;;;;;;2.10;1.00;;;;;;;34.15;32.12;101494.94;4958578;28;20026;-69
2022/06/18 06:30:54;;;;;;;2.95;1.10;;;;;;;34.27;32.18;101503.91;4975804;28;20106;-69
2022/06/18 06:33:19;;;;;;;1.40;1.10;;;;;;;34.37;32.85;101501.16;4969285;28;20393;-69
2022/06/18 06:35:45;;;;;;;3.40;1.50;;;;;;;34.51;32.12;101499.56;4957249;28;20084;-69
2022/06/18 06:38:12;;;;;;;4.07;2.08;;;;;;;34.64;32.46;101501.91;4955418;28;20501;-69
2022/06/18 06:40:38;;;;;;;4.68;1.50;;;;;;;34.75;31.95;101497.19;4956056;29;20094;-70
2022/06/18 06:43:04;;;;;;;2.90;1.40;;;;;;;34.80;32.46;101492.50;4938859;29;20027;-69
2022/06/18 06:45:32;;;;;;;11.45;1.30;;;;;;;34.92;32.29;101504.22;4955915;29;20078;-69
2022/06/18 06:47:58;;;;;;;4.45;1.52;;;;;;;35.07;32.15;101500.66;4956086;29;20469;-71
2022/06/18 06:50:25;;;;;;;13.80;2.47;;;;;;;35.22;31.60;101502.63;4955877;29;20026;-70
2022/06/18 06:52:51;;;;;;;5.53;1.77;;;;;;;35.39;31.62;101501.28;4955693;29;20078;-70
2022/06/18 06:58:06;;;;;;;10.27;1.83;;;;;;;35.73;31.75;101496.00;4955592;29;20450;-70
2022/06/18 07:00:33;;;;;;;4.20;1.63;;;;;;;35.91;31.64;101491.78;4938705;29;20432;-71
2022/06/18 07:02:59;;;;;;;17.27;3.33;;;;;;;36.04;31.35;101496.84;4938791;29;20023;-71
2022/06/18 07:05:24;;;;;;;12.40;2.30;;;;;;;36.15;30.88;101488.16;4938515;29;20077;-71
2022/06/18 07:07:50;;;;;;;16.58;2.53;;;;;;;36.29;30.57;101487.56;4955591;29;20030;-71
2022/06/18 07:10:15;;;;;;;8.27;1.70;;;;;;;36.43;30.67;101488.63;4938531;29;20051;-71
2022/06/18 07:12:40;;;;;;;15.63;3.30;;;;;;;36.57;30.92;101493.34;4955533;29;20027;-71
2022/06/18 07:15:07;;;;;;;10.35;2.30;;;;;;;36.68;30.43;101492.19;4955517;29;20027;-71
2022/06/18 07:17:33;;;;;;;6.85;1.90;;;;;;;36.80;30.74;101489.03;4955328;29;20508;-71
2022/06/18 07:19:59;;;;;;;3.65;1.58;;;;;;;36.93;30.44;101488.41;4955139;29;20023;-70
2022/06/18 07:22:25;;;;;;;5.55;2.20;;;;;;;37.05;29.98;101486.09;4955354;29;20027;-71
2022/06/18 07:24:51;;;;;;;5.80;2.08;;;;;;;37.18;30.50;101479.88;4938143;29;20106;-70
2022/06/18 07:27:17;;;;;;;4.93;1.85;;;;;;;37.31;29.67;101473.63;4955318;29;20080;-71
2022/06/18 07:29:42;;;;;;;8.43;3.00;;;;;;;37.48;30.10;101478.00;4955194;29;20020;-71
2022/06/18 07:32:12;;;;;;;6.28;2.30;;;;;;;37.63;29.51;101486.25;4955284;29;20030;-71
2022/06/18 07:34:37;;;;;;;12.00;1.98;;;;;;;37.76;29.22;101480.81;4955123;29;20497;-70
2022/06/18 07:37:03;;;;;;;12.32;2.60;;;;;;;37.89;29.58;101482.09;4938032;29;20089;-71
2022/06/18 07:39:28;;;;;;;11.07;2.67;;;;;;;38.02;29.33;101477.78;4955077;29;20035;-70
2022/06/18 07:41:54;;;;;;;10.00;2.33;;;;;;;38.16;29.28;101485.19;4937954;29;20043;-70
2022/06/18 07:44:20;;;;;;;94.97;11.52;;;;;;;38.27;28.59;101481.16;4955300;29;20042;-70
2022/06/18 07:46:47;;;;;;;6.78;2.15;;;;;;;38.38;29.23;101471.53;4955111;29;20031;-71
2022/06/18 07:49:15;;;;;;;16.55;2.10;;;;;;;38.51;28.97;101469.09;4955292;28;20047;-70
2022/06/18 07:51:41;;;;;;;12.43;3.22;;;;;;;38.63;28.57;101469.50;4958602;29;20098;-70
2022/06/18 07:54:06;;;;;;;5.55;2.20;;;;;;;38.74;27.88;101465.44;4959009;28;20107;-70
2022/06/18 07:56:32;;;;;;;79.78;14.32;;;;;;;38.87;28.33;101462.75;4959244;29;20034;-70
2022/06/18 07:58:58;;;;;;;14.00;3.10;;;;;;;39.02;27.90;101464.50;4958828;29;20059;-70
2022/06/18 08:01:23;;;;;;;200.60;30.13;;;;;;;39.16;27.62;101459.78;4959001;29;20027;-69
2022/06/18 08:03:49;;;;;;;362.23;61.15;;;;;;;39.29;27.21;101452.56;4958914;29;20074;-70
2022/06/18 08:06:14;;;;;;;10.63;4.30;;;;;;;39.41;27.83;101450.13;4941620;29;20066;-69
2022/06/18 08:08:40;;;;;;;16.83;3.20;;;;;;;39.53;26.81;101445.69;4958847;29;20054;-70
2022/06/18 08:11:11;;;;;;;7.78;2.45;;;;;;;39.65;26.67;101442.44;4941689;29;20030;-70
2022/06/18 08:13:37;;;;;;;5.38;1.85;;;;;;;39.78;26.92;101450.06;4958675;29;20389;-69
2022/06/18 08:16:03;;;;;;;9.65;1.95;;;;;;;39.89;26.19;101442.28;4958739;29;20059;-70
2022/06/18 08:18:28;;;;;;;3.33;1.75;;;;;;;40.05;26.48;101443.63;4958787;29;20038;-70
2022/06/18 08:20:54;;;;;;;4.93;1.70;;;;;;;40.16;26.58;101433.91;4958633;29;20078;-69
2022/06/18 08:23:20;;;;;;;8.07;1.77;;;;;;;40.27;26.75;101435.34;4941304;29;20130;-70
2022/06/18 08:25:45;;;;;;;6.43;2.05;;;;;;;40.36;26.68;101427.84;4958402;29;20046;-70
2022/06/18 08:28:11;;;;;;;4.38;2.10;;;;;;;40.47;26.18;101428.47;4941374;29;20031;-70
2022/06/18 08:30:36;;;;;;;2.47;1.90;;;;;;;40.57;26.00;101431.91;4957260;29;20023;-69
2022/06/18 08:33:02;;;;;;;3.97;1.55;;;;;;;40.68;25.74;101430.50;4941215;29;20106;-69
2022/06/18 08:35:27;;;;;;;3.13;1.73;;;;;;;40.75;25.49;101423.63;4958190;29;20110;-70
2022/06/18 08:37:53;;;;;;;5.00;1.60;;;;;;;40.84;25.30;101432.97;4958252;29;20027;-70
2022/06/18 08:40:48;;;;;;;7.68;2.22;;;;;;;40.92;25.65;101426.63;4958223;29;20041;-70
2022/06/18 08:43:19;;;;;;;3.08;1.60;;;;;;;41.00;25.18;101421.09;4958289;29;20074;-69
2022/06/18 08:46:09;;;;;;;7.97;1.70;;;;;;;41.10;25.15;101419.97;4958280;29;20486;-71
2022/06/18 08:49:09;;;;;;;7.85;1.60;;;;;;;41.24;24.83;101418.78;4941055;29;20034;-70
2022/06/18 08:51:57;;;;;;;3.42;1.92;;;;;;;41.33;25.05;101412.41;4958100;29;20059;-70
2022/06/18 08:54:54;;;;;;;11.02;2.08;;;;;;;41.37;25.10;101411.47;4958086;28;20035;-69
2022/06/18 08:57:31;;;;;;;30.63;7.20;;;;;;;41.43;25.30;101406.53;4957815;29;20451;-70
2022/06/18 09:00:28;;;;;;;11.43;1.90;;;;;;;41.51;24.77;101400.13;4957959;29;20031;-70
2022/06/18 09:02:58;;;;;;;4.20;1.92;;;;;;;41.56;24.97;101405.59;4940442;29;20038;-71
2022/06/18 09:05:36;;;;;;;8.35;1.70;;;;;;;41.67;24.76;101393.75;4958143;29;20532;-70
2022/06/18 09:08:10;;;;;;;8.35;2.05;;;;;;;41.74;24.98;101402.56;4957826;29;20039;-70
2022/06/18 09:10:54;;;;;;;13.40;2.72;;;;;;;41.87;24.96;101394.34;4924898;29;20031;-70
2022/06/18 09:13:25;;;;;;;7.68;1.67;;;;;;;42.01;24.64;101401.53;4940599;29;20058;-71
2022/06/18 09:15:55;;;;;;;11.15;1.73;;;;;;;42.15;24.69;101404.25;4956555;29;20038;-70
2022/06/18 09:18:24;;;;;;;5.82;1.88;;;;;;;42.25;24.52;101396.31;4956419;29;20027;-71
2022/06/18 09:20:54;;;;;;;8.05;2.00;;;;;;;42.34;24.31;101401.97;4956277;29;20027;-70
2022/06/18 09:23:30;;;;;;;9.98;2.60;;;;;;;42.45;24.43;101406.16;4957530;29;20034;-70
2022/06/18 09:25:58;;;;;;;3.75;1.83;;;;;;;42.54;24.34;101392.06;4957796;29;20485;-70
2022/06/18 09:28:36;;;;;;;10.63;2.05;;;;;;;42.65;24.34;101399.06;4957621;29;20027;-71
2022/06/18 09:31:13;;;;;;;8.18;2.58;;;;;;;42.76;24.08;101397.59;4940260;29;20078;-70
2022/06/18 09:33:45;;;;;;;16.05;2.78;;;;;;;42.88;24.21;101403.41;4957303;29;20035;-71
2022/06/18 09:36:17;;;;;;;25.10;4.55;;;;;;;42.90;23.96;101396.25;4940105;29;20106;-71
2022/06/18 09:38:57;;;;;;;11.13;1.90;;;;;;;43.00;23.69;101389.47;4940313;29;20053;-71
2022/06/18 09:41:28;;;;;;;4.28;1.58;;;;;;;43.19;23.67;101397.59;4940156;29;20027;-70
2022/06/18 09:44:23;;;;;;;3.63;2.20;;;;;;;43.30;23.53;101387.63;4940317;29;20082;-70
2022/06/18 09:47:01;;;;;;;5.45;2.20;;;;;;;43.39;23.33;101386.44;4956957;28;20046;-70
2022/06/18 09:49:28;;;;;;;1.92;1.30;;;;;;;43.50;23.20;101381.25;4939836;29;20028;-71
2022/06/18 09:54:30;;;;;;;4.88;1.60;;;;;;;43.67;23.16;101395.31;4968653;28;20384;-70
2022/06/18 09:57:01;;;;;;;5.93;1.92;;;;;;;43.79;23.32;101387.00;4976220;28;20030;-70
2022/06/18 09:59:39;;;;;;;12.43;2.38;;;;;;;43.92;23.24;101385.94;4976113;28;20054;-70
2022/06/18 10:02:16;;;;;;;4.68;1.63;;;;;;;44.14;22.70;101378.38;4958757;28;20109;-70
2022/06/18 10:07:28;;;;;;;18.88;17.33;;;;;;;44.77;23.06;101374.44;4964981;28;20094;-70
2022/06/18 10:10:00;;;;;;;82.85;79.07;;;;;;;45.21;22.60;101372.88;4971475;28;20022;-70
2022/06/18 10:12:37;;;;;;;11.60;10.07;;;;;;;45.70;22.30;101380.38;4968395;28;20027;-70
2022/06/18 10:15:08;;;;;;;4.18;1.77;;;;;;;46.33;21.42;101366.63;4963293;28;20496;-70
2022/06/18 10:17:55;;;;;;;3.10;1.55;;;;;;;47.00;21.58;101378.06;4964258;28;20046;-70
2022/06/18 10:20:39;;;;;;;10.15;2.50;;;;;;;47.06;20.90;101370.94;4964904;28;20388;-70
2022/06/18 10:23:09;;;;;;;2.00;1.67;;;;;;;46.72;21.15;101360.19;4965499;28;20023;-70
2022/06/18 10:25:48;;;;;;;4.70;2.17;;;;;;;46.58;21.41;101359.75;4964062;28;20027;-70
2022/06/18 10:28:41;;;;;;;4.13;2.17;;;;;;;46.45;21.76;101360.97;4963779;28;20146;-71
2022/06/18 10:31:21;;;;;;;2.53;1.83;;;;;;;46.38;21.60;101360.72;4965475;28;20098;-71
2022/06/18 10:34:10;;;;;;;2.45;1.70;;;;;;;46.31;21.70;101354.84;4965725;28;20440;-70
2022/06/18 10:36:38;;;;;;;4.22;2.05;;;;;;;46.36;21.46;101357.41;4948917;28;20107;-69
2022/06/18 10:39:46;;;;;;;2.42;2.10;;;;;;;46.49;21.45;101361.94;4963718;28;20032;-70
2022/06/18 10:42:23;;;;;;;7.82;2.20;;;;;;;46.64;21.16;101353.47;4866718;29;20496;-71
2022/06/18 10:45:13;;;;;;;3.78;1.90;;;;;;;46.77;21.42;101351.44;4866682;29;20034;-70
2022/06/18 10:47:41;;;;;;;4.28;2.38;;;;;;;46.79;21.46;101354.75;4873088;29;20029;-69
2022/06/18 10:50:11;;;;;;;2.33;1.95;;;;;;;46.87;21.25;101350.09;4875377;29;20464;-70
2022/06/18 10:52:37;;;;;;;6.03;2.45;;;;;;;46.98;21.53;101339.88;4878237;29;20029;-70
2022/06/18 10:55:17;;;;;;;2.17;1.98;;;;;;;47.06;21.23;101345.41;4877968;29;20056;-70
2022/06/18 10:57:43;;;;;;;3.45;1.80;;;;;;;47.16;21.30;101338.38;4878251;29;20048;-69
2022/06/18 11:00:27;;;;;;;3.40;1.95;;;;;;;47.31;21.18;101344.09;4878153;29;20033;-69
2022/06/18 11:02:55;;;;;;;3.10;1.55;;;;;;;47.48;21.13;101342.09;4878410;29;20041;-70
2022/06/18 11:05:27;;;;;;;4.38;1.70;;;;;;;47.64;21.06;101335.22;4878151;29;20475;-70
2022/06/18 11:07:53;;;;;;;4.10;1.90;;;;;;;47.79;20.74;101331.56;4878145;29;20032;-70
2022/06/18 11:10:44;;;;;;;2.38;1.60;;;;;;;47.90;20.94;101323.31;4877917;29;20053;-69
2022/06/18 11:13:30;;;;;;;3.20;1.90;;;;;;;48.02;20.42;101311.84;4878090;29;20024;-69
2022/06/18 11:16:39;;;;;;;6.53;1.92;;;;;;;48.07;20.72;101314.38;4920866;28;20042;-70
2022/06/18 11:19:16;;;;;;;5.60;1.60;;;;;;;48.19;20.61;101311.41;4915308;29;20068;-70
2022/06/18 11:21:45;;;;;;;5.38;2.05;;;;;;;48.24;20.43;101299.78;4915308;29;20028;-70
2022/06/18 11:24:10;;;;;;;2.67;2.03;;;;;;;48.32;20.31;101304.41;4915305;29;20032;-70
2022/06/18 11:26:38;;;;;;;2.43;1.80;;;;;;;48.37;20.41;101295.59;4915300;29;20390;-70
2022/06/18 11:29:13;;;;;;;5.88;2.25;;;;;;;48.39;20.59;101298.88;4899404;29;20266;-71
2022/06/18 11:31:44;;;;;;;2.35;1.85;;;;;;;48.42;20.23;101298.13;4915166;29;20538;-70
2022/06/18 11:34:19;;;;;;;7.10;2.30;;;;;;;48.58;20.21;101289.56;4915320;29;20032;-70
2022/06/18 11:36:47;;;;;;;5.55;2.10;;;;;;;48.66;20.40;101293.38;4914642;29;20069;-69
2022/06/18 11:39:42;;;;;;;3.45;1.83;;;;;;;48.67;20.47;101281.59;4915131;29;20132;-70
2022/06/18 11:42:18;;;;;;;2.17;1.63;;;;;;;48.42;20.59;101283.91;4903007;28;20044;-70
2022/06/18 11:44:51;;;;;;;9.00;2.10;;;;;;;48.43;20.50;101273.34;4915251;29;20422;-70
2022/06/18 11:47:18;;;;;;;2.60;1.77;;;;;;;48.38;20.48;101267.97;4910702;29;20035;-70
2022/06/18 11:50:29;;;;;;;4.88;1.85;;;;;;;48.40;20.11;101266.41;4941028;28;20058;-71
2022/06/18 11:53:02;;;;;;;5.53;1.88;;;;;;;48.46;20.13;101259.22;4954294;28;20047;-70